Time;durP1;ratioP1;P1;durP2;ratioP2;P2;SDS_P1;SDS_P2;PMS_P1;PMS_P2;Temp;Humidity;BMP_temperature;BMP_pressure;BME280_temperature;BME280_humidity;BME280_pressure;Samples;Min_cycle;Max_cycle;Signal;HPM_P1;HPM_P2
2021/01/22 00:00:40;;;;;;;3.20;1.17;;;10.80;99.90;;;;;;5092941;28;20081;-71
2021/01/22 00:03:06;;;;;;;2.30;0.70;;;10.80;99.90;;;;;;5094042;28;20028;-73
2021/01/22 00:05:32;;;;;;;1.38;0.60;;;10.80;99.90;;;;;;5092168;28;20090;-71
2021/01/22 00:07:58;;;;;;;1.92;1.05;;;10.80;99.90;;;;;;5093925;28;20032;-71
2021/01/22 00:10:24;;;;;;;1.45;0.57;;;10.90;99.90;;;;;;5093978;28;20028;-73
2021/01/22 00:12:50;;;;;;;1.58;0.63;;;10.80;99.90;;;;;;5092976;28;20082;-72
2021/01/22 00:15:15;;;;;;;2.25;0.50;;;10.70;99.90;;;;;;5093926;28;20020;-74
2021/01/22 00:17:42;;;;;;;1.85;0.80;;;10.70;99.90;;;;;;5093434;28;20026;-71
2021/01/22 00:20:08;;;;;;;1.10;0.43;;;10.60;99.90;;;;;;5093680;28;20103;-72
2021/01/22 00:22:35;;;;;;;1.05;0.60;;;10.60;99.90;;;;;;5092649;28;20032;-73
2021/01/22 00:25:00;;;;;;;2.33;0.60;;;10.70;99.90;;;;;;5093853;28;20453;-73
2021/01/22 00:27:26;;;;;;;0.45;0.40;;;10.70;99.90;;;;;;5093733;28;20020;-72
2021/01/22 00:29:51;;;;;;;1.95;0.70;;;10.70;99.90;;;;;;5095003;28;20024;-72
2021/01/22 00:32:17;;;;;;;0.80;0.60;;;10.80;99.90;;;;;;5096570;28;20024;-71
2021/01/22 00:34:42;;;;;;;1.15;0.55;;;10.80;99.90;;;;;;5097642;28;20024;-73
2021/01/22 00:37:08;;;;;;;3.40;0.93;;;10.80;99.90;;;;;;5097344;28;20028;-71
2021/01/22 00:39:33;;;;;;;1.00;0.60;;;10.80;99.90;;;;;;5096433;28;20036;-71
2021/01/22 00:41:59;;;;;;;1.40;0.52;;;10.90;99.90;;;;;;5097259;28;20042;-72
2021/01/22 00:44:24;;;;;;;2.50;0.60;;;10.80;99.90;;;;;;5096030;28;20483;-73
2021/01/22 00:46:50;;;;;;;1.48;0.73;;;10.80;99.90;;;;;;5095678;28;20229;-71
2021/01/22 00:49:15;;;;;;;4.72;1.00;;;10.90;99.90;;;;;;5097359;28;20032;-71
2021/01/22 00:51:41;;;;;;;2.53;0.80;;;10.90;99.90;;;;;;5097064;28;20035;-71
2021/01/22 00:54:07;;;;;;;4.80;1.20;;;10.90;99.90;;;;;;5097010;28;20099;-73
2021/01/22 00:56:32;;;;;;;3.35;0.90;;;10.70;99.90;;;;;;5097233;28;20031;-73
2021/01/22 00:58:58;;;;;;;4.68;0.90;;;10.70;99.90;;;;;;5097200;28;20032;-71
2021/01/22 01:01:23;;;;;;;1.77;0.80;;;10.70;99.90;;;;;;5097165;28;20025;-71
2021/01/22 01:03:49;;;;;;;2.90;1.13;;;10.80;99.90;;;;;;5095558;28;20024;-73
2021/01/22 01:06:14;;;;;;;2.97;0.80;;;10.70;99.90;;;;;;5097073;28;20066;-73
2021/01/22 01:08:40;;;;;;;4.15;0.70;;;10.70;99.90;;;;;;5096974;28;20378;-73
2021/01/22 01:11:06;;;;;;;1.48;0.90;;;10.80;99.90;;;;;;5096981;28;20020;-73
2021/01/22 01:13:31;;;;;;;4.90;1.15;;;10.90;99.90;;;;;;5096379;28;20020;-73
2021/01/22 01:15:57;;;;;;;4.85;1.33;;;10.90;99.90;;;;;;5096891;28;20020;-71
2021/01/22 01:18:23;;;;;;;5.25;1.23;;;10.90;99.90;;;;;;5096527;28;20028;-73
2021/01/22 01:20:48;;;;;;;3.40;0.95;;;10.90;99.90;;;;;;5096523;28;20035;-73
2021/01/22 01:23:15;;;;;;;1.40;0.52;;;10.90;99.90;;;;;;5096716;28;20062;-73
2021/01/22 01:25:41;;;;;;;4.82;1.27;;;10.80;99.90;;;;;;5096728;28;20031;-73
2021/01/22 01:28:07;;;;;;;5.93;1.38;;;10.70;99.90;;;;;;5096321;28;20027;-73
2021/01/22 01:30:34;;;;;;;3.90;1.05;;;10.70;99.90;;;;;;5096023;28;20083;-72
2021/01/22 01:33:00;;;;;;;7.63;1.52;;;10.70;99.90;;;;;;5096589;28;20362;-73
2021/01/22 01:35:25;;;;;;;8.23;1.52;;;10.60;99.90;;;;;;5096182;28;20078;-73
2021/01/22 01:37:51;;;;;;;5.40;1.40;;;10.70;99.90;;;;;;5096169;28;20024;-73
2021/01/22 01:40:16;;;;;;;9.68;1.50;;;10.70;99.90;;;;;;5096067;28;20032;-73
2021/01/22 01:42:42;;;;;;;6.82;1.40;;;10.70;99.90;;;;;;5095245;28;20500;-73
2021/01/22 01:45:08;;;;;;;4.57;1.48;;;10.60;99.90;;;;;;5096309;28;20056;-73
2021/01/22 01:47:33;;;;;;;6.15;1.40;;;10.60;99.90;;;;;;5095738;28;20123;-73
2021/01/22 01:49:59;;;;;;;4.60;1.20;;;10.70;99.90;;;;;;5096238;28;20023;-73
2021/01/22 01:52:24;;;;;;;3.00;1.17;;;10.60;99.90;;;;;;5095886;28;20025;-74
2021/01/22 01:54:51;;;;;;;5.57;1.30;;;10.60;99.90;;;;;;5095020;28;20020;-73
2021/01/22 01:57:17;;;;;;;4.45;1.35;;;10.60;99.90;;;;;;5096108;28;20027;-73
2021/01/22 01:59:44;;;;;;;8.70;1.50;;;10.60;99.90;;;;;;5096063;28;20029;-72
2021/01/22 02:02:09;;;;;;;2.88;0.95;;;10.50;99.90;;;;;;5094882;28;20020;-72
2021/01/22 02:04:35;;;;;;;5.22;1.23;;;10.70;99.90;;;;;;5095609;28;20039;-72
2021/01/22 02:07:00;;;;;;;4.22;1.60;;;10.70;99.90;;;;;;5094682;28;20085;-73
2021/01/22 02:09:27;;;;;;;4.55;1.00;;;10.60;99.90;;;;;;5095882;28;20020;-71
2021/01/22 02:11:53;;;;;;;2.83;1.00;;;10.50;99.90;;;;;;5095805;28;20020;-72
2021/01/22 02:14:19;;;;;;;2.67;1.25;;;10.50;99.90;;;;;;5095802;28;20024;-73
2021/01/22 02:16:45;;;;;;;3.60;1.10;;;10.30;99.90;;;;;;5095779;28;20024;-73
2021/01/22 02:19:12;;;;;;;5.38;1.33;;;10.30;99.90;;;;;;5095658;28;20081;-71
2021/01/22 02:21:39;;;;;;;2.85;1.00;;;10.30;99.90;;;;;;5095680;28;20031;-71
2021/01/22 02:24:17;;;;;;;4.05;1.10;;;10.30;99.90;;;;;;5095344;28;20023;-73
2021/01/22 02:29:28;;;;;;;4.35;0.90;;;10.30;99.90;;;;;;5112280;27;20355;-73
2021/01/22 02:31:55;;;;;;;4.15;1.20;;;10.20;99.90;;;;;;5111976;28;20058;-72
2021/01/22 02:34:24;;;;;;;3.92;1.15;;;10.20;99.90;;;;;;5111920;28;20016;-73
2021/01/22 02:36:55;;;;;;;3.28;1.27;;;10.20;99.90;;;;;;5111874;28;20024;-73
2021/01/22 02:39:24;;;;;;;5.03;1.45;;;10.20;99.90;;;;;;5111822;28;20054;-72
2021/01/22 02:41:53;;;;;;;4.10;1.00;;;10.20;99.90;;;;;;5111755;28;20028;-73
2021/01/22 02:44:19;;;;;;;12.65;1.48;;;10.10;99.90;;;;;;5111728;28;20032;-73
2021/01/22 02:46:45;;;;;;;2.47;1.40;;;10.10;99.90;;;;;;5110141;28;20038;-73
2021/01/22 02:49:10;;;;;;;2.88;1.10;;;9.90;99.90;;;;;;5111538;28;20107;-72
2021/01/22 02:51:36;;;;;;;3.00;1.00;;;9.30;99.90;;;;;;5109794;28;20048;-72
2021/01/22 02:54:01;;;;;;;2.22;0.88;;;8.70;99.90;;;;;;5110952;28;20031;-72
2021/01/22 02:56:48;;;;;;;1.35;0.52;;;8.20;99.90;;;;;;5111505;28;20024;-72
2021/01/22 03:04:40;;;;;;;2.15;0.70;;;7.70;99.90;;;;;;5112225;27;20343;-73
2021/01/22 03:07:11;;;;;;;1.92;0.90;;;7.10;99.90;;;;;;5111689;28;20073;-73
2021/01/22 03:09:40;;;;;;;1.80;1.10;;;7.00;99.90;;;;;;5111619;28;20024;-73
2021/01/22 03:12:07;;;;;;;1.73;1.38;;;6.90;99.90;;;;;;5112016;28;20052;-73
2021/01/22 03:14:34;;;;;;;2.00;1.10;;;6.90;99.90;;;;;;5112069;28;20492;-73
2021/01/22 03:17:00;;;;;;;5.43;1.10;;;6.80;99.90;;;;;;5111769;28;20031;-73
2021/01/22 03:19:26;;;;;;;2.22;1.27;;;6.70;99.90;;;;;;5111741;28;20073;-73
2021/01/22 03:21:51;;;;;;;1.00;0.73;;;6.50;99.90;;;;;;5111389;28;20372;-72
2021/01/22 03:24:17;;;;;;;1.65;0.90;;;6.30;99.90;;;;;;5111567;28;20089;-72
2021/01/22 03:26:42;;;;;;;0.40;0.40;;;6.10;99.90;;;;;;5111026;28;20099;-73
2021/01/22 03:29:08;;;;;;;0.82;0.70;;;6.00;99.90;;;;;;5111015;28;20024;-73
2021/01/22 03:31:33;;;;;;;0.60;0.60;;;5.80;99.90;;;;;;5111455;28;20028;-73
2021/01/22 03:33:59;;;;;;;0.40;0.40;;;5.70;99.90;;;;;;5111193;28;20073;-73
2021/01/22 03:36:25;;;;;;;0.38;0.38;;;5.60;99.90;;;;;;5111377;28;20103;-73
2021/01/22 03:38:50;;;;;;;0.57;0.57;;;5.50;99.90;;;;;;5111084;28;20032;-73
2021/01/22 03:41:16;;;;;;;0.43;0.43;;;5.50;99.90;;;;;;5111062;28;20058;-73
2021/01/22 03:43:41;;;;;;;0.77;0.75;;;5.40;99.90;;;;;;5110896;28;20016;-73
2021/01/22 03:46:07;;;;;;;0.80;0.80;;;5.40;99.90;;;;;;5109414;28;20020;-73
2021/01/22 03:48:33;;;;;;;0.80;0.80;;;5.30;99.90;;;;;;5111186;28;20020;-73
2021/01/22 03:50:58;;;;;;;3.50;1.10;;;5.30;99.90;;;;;;5111121;28;20027;-73
2021/01/22 03:53:24;;;;;;;1.10;1.00;;;5.20;99.90;;;;;;5111056;28;20023;-72
2021/01/22 03:55:50;;;;;;;1.13;1.00;;;5.20;99.90;;;;;;5111031;28;20350;-72
2021/01/22 03:58:16;;;;;;;1.40;1.15;;;5.10;99.90;;;;;;5109462;28;20070;-73
2021/01/22 04:00:43;;;;;;;0.95;0.88;;;5.10;99.90;;;;;;5110388;28;20464;-73
2021/01/22 04:03:09;;;;;;;1.52;1.17;;;5.00;99.90;;;;;;5110479;28;20063;-72
2021/01/22 04:05:34;;;;;;;1.92;1.10;;;5.00;99.90;;;;;;5110850;28;20117;-73
2021/01/22 04:08:00;;;;;;;1.55;1.30;;;5.00;99.90;;;;;;5110834;28;20614;-72
2021/01/22 04:10:25;;;;;;;2.63;1.00;;;5.10;99.90;;;;;;5110183;28;20020;-72
2021/01/22 04:12:51;;;;;;;1.65;1.20;;;5.00;99.90;;;;;;5110722;28;20027;-73
2021/01/22 04:15:16;;;;;;;2.58;1.70;;;5.00;99.90;;;;;;5100946;28;20073;-72
2021/01/22 04:17:42;;;;;;;2.15;1.88;;;4.90;99.90;;;;;;5097018;28;20024;-72
2021/01/22 04:20:08;;;;;;;5.13;1.80;;;4.90;99.90;;;;;;5097030;28;20031;-72
2021/01/22 04:22:33;;;;;;;2.38;1.90;;;4.90;99.90;;;;;;5096865;28;20541;-72
2021/01/22 04:24:59;;;;;;;3.75;2.55;;;4.80;99.90;;;;;;5096917;28;20099;-72
2021/01/22 04:27:24;;;;;;;4.53;3.05;;;4.80;99.90;;;;;;5096587;28;20027;-72
2021/01/22 04:29:50;;;;;;;3.78;2.95;;;4.70;99.90;;;;;;5096828;28;20416;-72
2021/01/22 04:32:15;;;;;;;5.15;3.30;;;4.80;99.90;;;;;;5096212;28;20024;-72
2021/01/22 04:34:41;;;;;;;6.45;3.63;;;4.80;99.90;;;;;;5094932;28;20024;-72
2021/01/22 04:37:07;;;;;;;5.47;3.47;;;4.70;99.90;;;;;;5096708;28;20024;-72
2021/01/22 04:39:34;;;;;;;4.75;3.88;;;4.70;99.90;;;;;;5096607;28;20373;-72
2021/01/22 04:42:01;;;;;;;7.15;4.55;;;4.70;99.90;;;;;;5094723;28;20020;-72
2021/01/22 04:44:27;;;;;;;9.63;4.75;;;4.70;99.90;;;;;;5095284;28;20492;-73
2021/01/22 04:46:54;;;;;;;6.50;4.47;;;4.70;99.90;;;;;;5095868;28;20028;-72
2021/01/22 04:49:20;;;;;;;7.80;4.95;;;4.70;99.90;;;;;;5096620;28;20020;-73
2021/01/22 04:51:46;;;;;;;7.60;5.07;;;4.70;99.90;;;;;;5096383;28;20027;-72
2021/01/22 04:54:25;;;;;;;9.55;4.95;;;4.70;99.90;;;;;;5096290;28;20377;-73
2021/01/22 04:56:51;;;;;;;9.13;4.95;;;4.70;99.90;;;;;;5096251;28;20028;-73
2021/01/22 04:59:22;;;;;;;5.80;3.65;;;4.60;99.90;;;;;;5096241;28;20085;-72
2021/01/22 05:01:48;;;;;;;9.05;4.43;;;4.60;99.90;;;;;;5094768;28;20052;-72
2021/01/22 05:04:15;;;;;;;7.15;5.15;;;4.50;99.90;;;;;;5095472;28;20089;-72
2021/01/22 05:06:42;;;;;;;7.22;4.72;;;4.60;99.90;;;;;;5095800;28;20381;-72
2021/01/22 05:09:08;;;;;;;6.97;4.80;;;4.50;99.90;;;;;;5096060;28;20020;-72
2021/01/22 05:11:33;;;;;;;8.35;5.50;;;4.60;99.90;;;;;;5095716;28;20070;-72
2021/01/22 05:13:59;;;;;;;11.48;6.75;;;4.60;99.90;;;;;;5095965;28;20028;-72
2021/01/22 05:16:25;;;;;;;13.55;7.20;;;4.60;99.90;;;;;;5095852;28;20028;-72
2021/01/22 05:18:50;;;;;;;12.00;7.75;;;4.60;99.90;;;;;;5095318;28;20028;-72
2021/01/22 05:21:19;;;;;;;15.95;9.95;;;4.60;99.90;;;;;;5095529;28;20417;-72
2021/01/22 05:23:44;;;;;;;14.88;9.80;;;4.60;99.90;;;;;;5095660;28;20023;-72
2021/01/22 05:26:13;;;;;;;16.10;11.27;;;4.60;99.90;;;;;;5094159;28;20016;-72
2021/01/22 05:28:45;;;;;;;19.27;13.10;;;4.60;99.90;;;;;;5095395;28;20012;-72
2021/01/22 05:31:12;;;;;;;23.45;14.23;;;4.60;99.90;;;;;;5094612;28;20027;-72
2021/01/22 05:33:39;;;;;;;25.30;16.73;;;4.60;99.90;;;;;;5095329;28;20384;-72
2021/01/22 05:36:26;;;;;;;23.17;14.90;;;4.50;99.90;;;;;;5095502;28;20024;-72
2021/01/22 05:38:54;;;;;;;22.25;14.05;;;4.50;99.90;;;;;;5094952;28;20027;-72
2021/01/22 05:41:19;;;;;;;20.52;13.18;;;4.50;99.90;;;;;;5095430;28;20048;-72
2021/01/22 05:43:46;;;;;;;22.25;13.85;;;4.50;99.90;;;;;;5094744;28;20060;-72
2021/01/22 05:46:15;;;;;;;23.88;14.05;;;4.50;99.90;;;;;;5094777;28;20020;-72
2021/01/22 05:48:41;;;;;;;26.25;16.15;;;4.50;99.90;;;;;;5094995;28;20376;-72
2021/01/22 05:51:07;;;;;;;22.83;13.93;;;4.50;99.90;;;;;;5095263;28;20458;-72
2021/01/22 05:53:42;;;;;;;26.13;14.45;;;4.60;99.90;;;;;;5095169;28;20027;-72
2021/01/22 05:56:10;;;;;;;24.08;15.05;;;4.60;99.90;;;;;;5076493;28;20035;-72
2021/01/22 05:58:38;;;;;;;27.05;15.43;;;4.60;99.90;;;;;;5093687;28;20028;-72
2021/01/22 06:01:05;;;;;;;27.67;15.10;;;4.60;99.90;;;;;;5095069;28;20020;-72
2021/01/22 06:03:30;;;;;;;27.90;16.02;;;4.60;99.90;;;;;;5094348;28;20461;-72
2021/01/22 06:05:56;;;;;;;29.77;15.57;;;4.60;99.90;;;;;;5094989;28;20095;-72
2021/01/22 06:08:22;;;;;;;29.73;15.02;;;4.60;99.90;;;;;;5094360;28;20028;-72
2021/01/22 06:10:51;;;;;;;24.65;14.02;;;4.60;99.90;;;;;;5094869;28;20024;-72
2021/01/22 06:13:25;;;;;;;25.83;13.10;;;4.60;99.90;;;;;;5094893;28;20031;-72
2021/01/22 06:15:55;;;;;;;23.27;12.80;;;4.70;99.90;;;;;;5094819;28;20032;-72
2021/01/22 06:18:28;;;;;;;27.40;13.77;;;4.70;99.90;;;;;;5094748;28;20016;-72
2021/01/22 06:20:59;;;;;;;23.08;12.77;;;4.60;99.90;;;;;;5094700;28;20043;-72
2021/01/22 06:23:24;;;;;;;26.50;12.48;;;4.70;99.90;;;;;;5094022;28;20427;-72
2021/01/22 06:25:50;;;;;;;23.95;13.13;;;4.70;99.90;;;;;;5092767;28;20024;-72
2021/01/22 06:28:20;;;;;;;22.63;12.93;;;4.70;99.90;;;;;;5094575;28;20031;-72
2021/01/22 06:30:47;;;;;;;21.08;12.05;;;4.70;99.90;;;;;;5093069;28;20054;-72
2021/01/22 06:33:14;;;;;;;19.70;11.57;;;4.70;99.90;;;;;;5094481;28;20511;-72
2021/01/22 06:35:42;;;;;;;20.63;12.05;;;4.70;99.90;;;;;;5094166;28;20461;-72
2021/01/22 06:38:08;;;;;;;20.80;12.00;;;4.70;99.90;;;;;;5093942;28;20069;-72
2021/01/22 06:40:34;;;;;;;22.98;11.82;;;4.70;99.90;;;;;;5094311;28;20036;-72
2021/01/22 06:43:01;;;;;;;21.33;11.30;;;4.80;99.90;;;;;;5094210;28;20028;-72
2021/01/22 06:45:26;;;;;;;23.58;11.90;;;4.70;99.90;;;;;;5093792;28;20031;-72
2021/01/22 06:48:01;;;;;;;19.25;11.82;;;4.70;99.90;;;;;;5093677;28;20020;-72
2021/01/22 06:50:28;;;;;;;26.65;13.38;;;4.70;99.90;;;;;;5094012;28;20020;-72
2021/01/22 06:53:11;;;;;;;19.60;11.45;;;4.70;99.90;;;;;;5094221;28;20017;-72
2021/01/22 06:58:30;;;;;;;21.20;11.02;;;4.80;99.90;;;;;;5091788;28;20353;-72
2021/01/22 07:00:58;;;;;;;17.15;10.35;;;4.90;99.90;;;;;;5091547;28;20025;-71
2021/01/22 07:09:10;;;;;;;19.50;10.82;;;4.80;99.90;;;;;;5112085;27;20347;-73
2021/01/22 07:11:56;;;;;;;21.05;10.63;;;4.80;99.90;;;;;;5111552;28;20031;-73
2021/01/22 07:14:42;;;;;;;16.00;9.77;;;4.90;99.90;;;;;;5111048;28;20020;-73
2021/01/22 07:17:29;;;;;;;17.42;10.13;;;4.90;99.90;;;;;;5109882;28;20423;-71
2021/01/22 07:20:12;;;;;;;18.15;10.68;;;4.90;99.90;;;;;;5111597;28;20073;-72
2021/01/22 07:22:51;;;;;;;19.70;10.93;;;4.90;99.90;;;;;;5111120;28;20047;-72
2021/01/22 07:25:38;;;;;;;19.33;10.77;;;4.90;99.90;;;;;;5111574;28;20020;-71
2021/01/22 07:28:23;;;;;;;16.70;10.43;;;4.90;99.90;;;;;;5109815;28;20469;-72
2021/01/22 07:30:51;;;;;;;23.30;11.60;;;4.90;99.90;;;;;;5110858;28;20023;-72
2021/01/22 07:33:37;;;;;;;22.10;11.52;;;4.90;99.90;;;;;;5094384;28;20023;-72
2021/01/22 07:36:07;;;;;;;22.60;12.05;;;5.00;99.90;;;;;;5110811;28;20510;-72
2021/01/22 07:38:34;;;;;;;20.50;11.10;;;5.00;99.90;;;;;;5093335;28;20042;-72
2021/01/22 07:41:00;;;;;;;20.13;11.45;;;5.00;99.90;;;;;;5110350;28;20492;-72
2021/01/22 07:43:26;;;;;;;20.60;12.77;;;5.00;99.90;;;;;;5104598;28;20032;-73
2021/01/22 07:46:07;;;;;;;25.00;13.00;;;5.00;99.90;;;;;;5110823;28;20158;-72
2021/01/22 07:48:33;;;;;;;20.23;12.63;;;5.00;99.90;;;;;;5110425;28;20116;-72
2021/01/22 07:50:59;;;;;;;20.98;12.60;;;5.00;99.90;;;;;;5110405;28;20049;-72
2021/01/22 07:53:24;;;;;;;22.58;13.43;;;5.00;99.90;;;;;;5109750;28;20047;-72
2021/01/22 07:55:52;;;;;;;31.40;13.40;;;5.00;99.90;;;;;;5108149;28;20073;-72
2021/01/22 07:58:18;;;;;;;29.08;13.20;;;5.00;99.90;;;;;;5110066;28;20016;-72
2021/01/22 08:00:43;;;;;;;23.00;13.38;;;5.00;99.90;;;;;;5110454;28;20526;-72
2021/01/22 08:03:11;;;;;;;24.73;13.77;;;5.00;99.90;;;;;;5108597;28;20031;-72
2021/01/22 08:05:38;;;;;;;23.15;14.27;;;5.10;99.90;;;;;;5109747;28;20363;-72
2021/01/22 08:08:21;;;;;;;21.10;12.73;;;5.10;99.90;;;;;;5109502;28;20044;-72
2021/01/22 08:10:47;;;;;;;23.38;13.25;;;5.10;99.90;;;;;;5108795;28;20019;-72
2021/01/22 08:13:15;;;;;;;22.70;13.75;;;5.10;99.90;;;;;;5109146;28;20028;-72
2021/01/22 08:15:44;;;;;;;26.30;13.93;;;5.10;99.90;;;;;;5108768;28;20023;-72
2021/01/22 08:18:13;;;;;;;30.65;14.20;;;5.10;99.90;;;;;;5109068;28;20383;-72
2021/01/22 08:20:38;;;;;;;25.83;13.52;;;5.20;99.90;;;;;;5095483;28;20020;-72
2021/01/22 08:23:04;;;;;;;27.45;13.88;;;5.20;99.90;;;;;;5093098;28;20028;-72
2021/01/22 08:25:35;;;;;;;26.55;13.27;;;5.20;99.90;;;;;;5096159;28;20465;-72
2021/01/22 08:28:02;;;;;;;26.65;13.63;;;5.30;99.90;;;;;;5095004;28;20466;-72
2021/01/22 08:30:28;;;;;;;21.25;13.38;;;5.40;99.90;;;;;;5096091;28;20027;-72
2021/01/22 08:32:55;;;;;;;22.83;13.30;;;5.40;99.90;;;;;;5095320;28;20103;-72
2021/01/22 08:35:22;;;;;;;24.63;13.73;;;5.50;99.90;;;;;;5097027;28;20099;-72
2021/01/22 08:37:50;;;;;;;23.65;13.30;;;5.50;99.90;;;;;;5094629;28;20028;-72
2021/01/22 08:40:17;;;;;;;29.10;15.15;;;5.50;99.90;;;;;;5094605;28;20024;-72
2021/01/22 08:42:58;;;;;;;31.00;16.92;;;5.50;99.90;;;;;;5094944;28;20028;-72
2021/01/22 08:45:25;;;;;;;28.25;13.82;;;5.50;99.90;;;;;;5095006;28;20020;-72
2021/01/22 08:47:51;;;;;;;25.50;13.30;;;5.60;99.90;;;;;;5076831;28;20378;-72
2021/01/22 08:50:18;;;;;;;21.73;12.02;;;5.60;99.90;;;;;;5095903;28;20020;-72
2021/01/22 08:52:44;;;;;;;26.30;13.80;;;5.60;99.90;;;;;;5094724;28;20024;-72
2021/01/22 08:55:24;;;;;;;22.33;12.90;;;5.70;99.90;;;;;;5095527;28;20081;-72
2021/01/22 08:58:07;;;;;;;24.75;12.80;;;5.70;99.90;;;;;;5095310;28;20384;-72
2021/01/22 09:00:33;;;;;;;20.40;12.45;;;5.70;99.90;;;;;;5095427;28;20468;-72
2021/01/22 09:02:58;;;;;;;26.33;12.32;;;5.80;99.90;;;;;;5095294;28;20028;-72
2021/01/22 09:05:25;;;;;;;25.85;13.75;;;5.80;99.90;;;;;;5093637;28;20028;-72
2021/01/22 09:08:09;;;;;;;22.42;12.60;;;5.80;99.90;;;;;;5095079;28;20044;-73
2021/01/22 09:10:39;;;;;;;22.70;12.10;;;5.90;99.90;;;;;;5093735;28;20020;-73
2021/01/22 09:13:09;;;;;;;25.13;14.00;;;5.90;99.90;;;;;;5094799;28;20097;-72
2021/01/22 09:15:35;;;;;;;24.60;12.95;;;5.90;99.90;;;;;;5095197;28;20418;-72
2021/01/22 09:18:01;;;;;;;21.58;12.05;;;5.90;99.90;;;;;;5095198;28;20412;-72
2021/01/22 09:20:27;;;;;;;20.95;12.32;;;5.90;99.90;;;;;;5095359;28;20021;-72
2021/01/22 09:22:56;;;;;;;38.38;20.67;;;5.90;99.90;;;;;;5094746;28;20024;-72
2021/01/22 09:25:26;;;;;;;21.23;12.10;;;6.00;99.90;;;;;;5095717;28;20074;-72
2021/01/22 09:27:52;;;;;;;21.25;13.38;;;6.00;99.90;;;;;;5094787;28;20031;-73
2021/01/22 09:30:20;;;;;;;22.65;10.82;;;6.00;99.90;;;;;;5093175;28;20020;-72
2021/01/22 09:32:48;;;;;;;18.58;10.75;;;6.00;99.90;;;;;;5093286;28;20020;-72
2021/01/22 09:35:14;;;;;;;23.00;12.02;;;5.90;99.90;;;;;;5093471;28;20051;-72
2021/01/22 09:37:40;;;;;;;24.30;12.63;;;6.00;99.90;;;;;;5093489;28;20373;-72
2021/01/22 09:40:06;;;;;;;47.03;13.65;;;6.10;99.90;;;;;;5095328;28;20024;-72
2021/01/22 09:42:32;;;;;;;19.90;10.57;;;6.30;99.90;;;;;;5093998;28;20028;-72
2021/01/22 09:44:58;;;;;;;21.88;10.77;;;6.40;99.90;;;;;;5076534;28;20024;-72
2021/01/22 09:47:24;;;;;;;22.65;11.23;;;6.50;99.90;;;;;;5094534;28;20029;-72
2021/01/22 09:49:49;;;;;;;21.40;10.90;;;6.60;99.90;;;;;;5094556;28;20016;-72
2021/01/22 09:52:15;;;;;;;19.48;10.73;;;6.70;99.90;;;;;;5094460;28;20012;-72
2021/01/22 09:54:42;;;;;;;17.88;10.55;;;6.80;99.90;;;;;;5094650;28;20027;-72
2021/01/22 09:57:07;;;;;;;22.55;11.13;;;6.80;99.90;;;;;;5094719;28;20488;-72
2021/01/22 09:59:33;;;;;;;20.27;10.50;;;6.90;99.90;;;;;;5094164;28;20028;-72
2021/01/22 10:01:58;;;;;;;20.13;9.68;;;6.80;99.90;;;;;;5094228;28;20024;-72
2021/01/22 10:04:24;;;;;;;19.65;10.25;;;6.80;99.90;;;;;;5094875;28;20388;-73
2021/01/22 10:06:50;;;;;;;18.85;10.30;;;6.80;99.90;;;;;;5092470;28;20430;-73
2021/01/22 10:09:18;;;;;;;22.30;9.55;;;7.00;99.90;;;;;;5094210;28;20497;-72
2021/01/22 10:11:44;;;;;;;15.55;8.80;;;7.10;99.90;;;;;;5093815;28;20073;-72
2021/01/22 10:14:09;;;;;;;20.40;9.30;;;7.10;99.90;;;;;;5093969;28;20016;-73
2021/01/22 10:16:35;;;;;;;17.92;9.10;;;7.10;99.90;;;;;;5094435;28;20376;-73
2021/01/22 10:19:01;;;;;;;25.40;10.63;;;7.10;99.90;;;;;;5093004;28;20389;-72
2021/01/22 10:21:27;;;;;;;29.38;16.48;;;7.00;99.90;;;;;;5093428;28;20127;-72
2021/01/22 10:23:53;;;;;;;25.27;11.32;;;6.90;99.90;;;;;;5094116;28;20497;-72
2021/01/22 10:26:22;;;;;;;17.83;8.48;;;6.90;99.90;;;;;;5093818;28;20031;-72
2021/01/22 10:28:49;;;;;;;22.08;12.55;;;6.80;99.90;;;;;;5093853;28;20043;-72
2021/01/22 10:31:15;;;;;;;16.75;10.30;;;6.80;99.90;;;;;;5094375;28;20023;-73
2021/01/22 10:33:41;;;;;;;17.17;9.68;;;6.80;99.90;;;;;;5093989;28;20024;-73
2021/01/22 10:36:07;;;;;;;12.82;7.72;;;6.80;99.90;;;;;;5093844;28;20035;-72
2021/01/22 10:38:34;;;;;;;14.25;8.23;;;6.90;99.90;;;;;;5093729;28;20060;-72
2021/01/22 10:41:01;;;;;;;15.27;8.35;;;6.80;99.90;;;;;;5093397;28;20039;-72
2021/01/22 10:43:27;;;;;;;17.98;9.07;;;6.80;99.90;;;;;;5093261;28;20020;-73
2021/01/22 10:45:52;;;;;;;15.07;8.63;;;6.90;99.90;;;;;;5094068;28;20081;-72
2021/01/22 10:48:18;;;;;;;14.68;7.47;;;6.90;99.90;;;;;;5092998;28;20330;-72
2021/01/22 10:50:44;;;;;;;17.33;7.82;;;6.80;99.90;;;;;;5093639;28;20473;-68
2021/01/22 10:53:10;;;;;;;15.18;7.95;;;6.90;99.90;;;;;;5093896;28;20042;-68
2021/01/22 10:55:36;;;;;;;17.35;8.50;;;6.90;99.90;;;;;;5093429;28;20469;-68
2021/01/22 10:58:01;;;;;;;14.63;8.25;;;6.90;99.90;;;;;;5093258;28;20473;-68
2021/01/22 11:00:27;;;;;;;14.70;7.90;;;7.00;99.90;;;;;;5093299;28;20497;-73
2021/01/22 11:02:53;;;;;;;17.75;7.50;;;7.20;99.90;;;;;;5093074;28;20023;-73
2021/01/22 11:05:18;;;;;;;20.45;10.13;;;7.40;99.90;;;;;;5093610;28;20497;-73
2021/01/22 11:07:44;;;;;;;37.80;18.30;;;7.50;99.90;;;;;;5092979;28;20040;-73
2021/01/22 11:10:10;;;;;;;52.90;23.10;;;7.50;99.90;;;;;;5091944;28;20067;-73
2021/01/22 11:12:36;;;;;;;43.22;23.25;;;7.50;99.90;;;;;;5094550;28;20050;-69
2021/01/22 11:15:02;;;;;;;37.75;19.15;;;7.30;99.90;;;;;;5093012;28;20025;-69
2021/01/22 11:17:28;;;;;;;21.42;11.88;;;7.20;99.90;;;;;;5092086;28;20477;-69
2021/01/22 11:19:53;;;;;;;15.35;10.23;;;7.20;99.90;;;;;;5092389;28;20065;-69
2021/01/22 11:22:19;;;;;;;15.50;7.72;;;7.20;99.90;;;;;;5093188;28;20025;-68
2021/01/22 11:24:44;;;;;;;16.58;7.97;;;7.20;99.90;;;;;;5091943;28;20027;-68
2021/01/22 11:27:10;;;;;;;14.18;7.70;;;7.10;99.90;;;;;;5092977;28;20153;-69
2021/01/22 11:29:37;;;;;;;17.20;7.78;;;7.10;99.90;;;;;;5093026;28;20074;-69
2021/01/22 11:32:03;;;;;;;19.42;7.75;;;7.10;99.90;;;;;;5093218;28;20469;-69
2021/01/22 11:34:30;;;;;;;22.30;8.48;;;7.10;99.90;;;;;;5093259;28;20388;-69
2021/01/22 11:36:56;;;;;;;13.98;8.27;;;7.10;99.90;;;;;;5093245;28;20371;-69
2021/01/22 11:39:21;;;;;;;15.20;8.05;;;7.30;99.90;;;;;;5092925;28;20032;-69
2021/01/22 11:41:47;;;;;;;17.95;7.50;;;7.30;99.90;;;;;;5093339;28;20020;-69
2021/01/22 11:44:12;;;;;;;16.23;8.10;;;7.20;99.90;;;;;;5093551;28;20024;-69
2021/01/22 11:46:40;;;;;;;16.25;7.13;;;7.20;99.90;;;;;;5093385;28;20142;-69
2021/01/22 11:49:07;;;;;;;19.42;7.55;;;7.30;99.90;;;;;;5092840;28;20483;-69
2021/01/22 11:51:32;;;;;;;14.50;7.43;;;7.30;99.90;;;;;;5092898;28;20035;-69
2021/01/22 11:53:58;;;;;;;16.58;7.43;;;7.40;99.90;;;;;;5093528;28;20373;-69
2021/01/22 11:56:23;;;;;;;15.25;7.25;;;7.40;99.90;;;;;;5097351;28;20023;-69
2021/01/22 11:58:49;;;;;;;17.17;6.65;;;7.50;99.90;;;;;;5095467;28;20381;-69
2021/01/22 12:01:14;;;;;;;15.68;6.63;;;7.50;99.90;;;;;;5096791;28;20024;-69
2021/01/22 12:03:40;;;;;;;21.13;6.85;;;7.50;99.90;;;;;;5096753;28;20133;-68
2021/01/22 12:06:05;;;;;;;14.25;8.07;;;7.30;99.90;;;;;;5096583;28;20033;-68
2021/01/22 12:08:31;;;;;;;16.85;7.93;;;7.30;99.90;;;;;;5096428;28;20073;-69
2021/01/22 12:10:57;;;;;;;9.60;6.20;;;7.40;99.90;;;;;;5096744;28;20092;-69
2021/01/22 12:13:22;;;;;;;15.27;6.95;;;7.30;99.90;;;;;;5096430;28;20028;-69
2021/01/22 12:15:48;;;;;;;13.68;7.28;;;7.30;99.90;;;;;;5096194;28;20020;-69
2021/01/22 12:18:13;;;;;;;12.25;7.28;;;7.20;99.90;;;;;;5096419;28;20032;-69
2021/01/22 12:20:39;;;;;;;14.80;7.65;;;7.40;99.90;;;;;;5096411;28;20066;-68
2021/01/22 12:23:04;;;;;;;15.90;7.10;;;7.50;99.90;;;;;;5095679;28;20150;-69
2021/01/22 12:25:30;;;;;;;15.02;8.20;;;7.60;99.90;;;;;;5094789;28;20031;-69
2021/01/22 12:27:55;;;;;;;20.38;7.40;;;7.50;99.90;;;;;;5094156;28;20028;-69
2021/01/22 12:30:21;;;;;;;20.20;7.65;;;7.60;99.90;;;;;;5077553;28;20023;-69
2021/01/22 12:32:47;;;;;;;13.82;7.50;;;7.80;99.90;;;;;;5084550;28;20026;-69
2021/01/22 12:35:14;;;;;;;13.77;7.05;;;7.80;99.90;;;;;;5075461;28;20021;-69
2021/01/22 12:37:40;;;;;;;14.93;7.10;;;7.80;99.90;;;;;;5091671;28;20024;-69
2021/01/22 12:40:06;;;;;;;14.18;7.50;;;7.80;99.90;;;;;;5095573;28;20035;-69
2021/01/22 12:42:31;;;;;;;12.23;7.28;;;7.80;99.90;;;;;;5095536;28;20021;-69
2021/01/22 12:44:57;;;;;;;17.92;7.45;;;7.90;99.90;;;;;;5095409;28;20129;-69
2021/01/22 12:47:22;;;;;;;13.02;7.00;;;8.00;99.90;;;;;;5095637;28;20032;-69
2021/01/22 12:49:48;;;;;;;14.00;7.70;;;8.10;99.90;;;;;;5095228;28;20016;-69
2021/01/22 12:52:13;;;;;;;13.13;7.80;;;8.20;99.90;;;;;;5095474;28;20026;-69
2021/01/22 12:54:39;;;;;;;16.00;8.13;;;8.40;99.90;;;;;;5093717;28;20027;-69
2021/01/22 12:57:04;;;;;;;14.18;8.40;;;8.10;99.90;;;;;;5095637;28;20032;-69
2021/01/22 12:59:30;;;;;;;21.35;8.95;;;8.00;99.90;;;;;;5095487;28;20028;-69
2021/01/22 13:01:55;;;;;;;11.82;7.68;;;7.90;99.90;;;;;;5095871;28;20020;-69